| time (UTC) | temp F | wind direction | speed MPH | gust MPH | rain 1hr in | rain 24hr in | rain mn in | humidity % | barometer mb |
| 20260507230316 | 60 | 58 | 2.0 | 2.0 | 0.00 | 0.05 | 0.05 | 28 | 1018.1 |
| 20260507225816 | 61 | 25 | 3.0 | 5.0 | 0.00 | 0.05 | 0.05 | 27 | 1018.2 |
| 20260507225312 | 60 | 345 | 1.0 | 2.0 | 0.00 | 0.05 | 0.05 | 27 | 1018.1 |
| 20260507224808 | 60 | 332 | 6.0 | 8.0 | 0.00 | 0.05 | 0.05 | 28 | 1018.0 |
| 20260507224305 | 60 | 8 | 4.0 | 6.0 | 0.00 | 0.05 | 0.05 | 27 | 1018.4 |
| 20260507223801 | 59 | 23 | 5.0 | 6.0 | 0.00 | 0.05 | 0.05 | 26 | 1018.2 |
| 20260507223257 | 60 | 28 | 7.0 | 8.0 | 0.00 | 0.05 | 0.05 | 27 | 1018.0 |
| 20260507222754 | 59 | 31 | 2.0 | 3.0 | 0.00 | 0.05 | 0.05 | 28 | 1018.2 |
| 20260507222250 | 60 | 19 | 4.0 | 6.0 | 0.00 | 0.05 | 0.05 | 27 | 1018.2 |
| 20260507221748 | 61 | 11 | 5.0 | 6.0 | 0.00 | 0.05 | 0.05 | 26 | 1018.4 |
| 20260507221244 | 62 | 29 | 7.0 | 8.0 | 0.00 | 0.05 | 0.05 | 25 | 1018.4 |
| 20260507220740 | 60 | 31 | 4.0 | 6.0 | 0.00 | 0.05 | 0.05 | 27 | 1018.2 |
| 20260507220239 | 60 | 301 | 5.0 | 6.0 | 0.00 | 0.05 | 0.05 | 26 | 1018.4 |
| 20260507215735 | 62 | 1 | 2.0 | 2.0 | 0.00 | 0.05 | 0.05 | 26 | 1018.4 |
| 20260507215233 | 63 | 40 | 4.0 | 5.0 | 0.00 | 0.05 | 0.05 | 25 | 1018.6 |
| 20260507214729 | 64 | 68 | 4.0 | 6.0 | 0.00 | 0.05 | 0.05 | 25 | 1018.5 |
| 20260507214227 | 64 | 115 | 3.0 | 5.0 | 0.00 | 0.05 | 0.05 | 25 | 1018.6 |
| 20260507213722 | 63 | 11 | 8.0 | 9.0 | 0.00 | 0.05 | 0.05 | 24 | 1018.4 |
| 20260507213219 | 62 | 43 | 8.0 | 10.0 | 0.00 | 0.05 | 0.05 | 24 | 1018.9 |
| 20260507212715 | 63 | 4 | 6.0 | 8.0 | 0.00 | 0.05 | 0.05 | 26 | 1018.7 |
| 20260507212212 | 62 | 117 | 5.0 | 6.0 | 0.00 | 0.05 | 0.05 | 27 | 1018.9 |
| 20260507211709 | 62 | 56 | 2.0 | 3.0 | 0.00 | 0.05 | 0.05 | 28 | 1018.9 |
| 20260507211204 | 61 | 155 | 2.0 | 3.0 | 0.00 | 0.05 | 0.05 | 30 | 1019.1 |
| 20260507210702 | 62 | 12 | 3.0 | 3.0 | 0.00 | 0.05 | 0.05 | 30 | 1018.9 |
| 20260507210159 | 62 | 51 | 5.0 | 7.0 | 0.00 | 0.05 | 0.05 | 29 | 1019.0 |
| 20260507205655 | 62 | 41 | 1.0 | 1.0 | 0.00 | 0.05 | 0.05 | 29 | 1019.4 |
| 20260507205152 | 62 | 23 | 2.0 | 2.0 | 0.00 | 0.05 | 0.05 | 29 | 1019.4 |
| 20260507204648 | 61 | 352 | 5.0 | 7.0 | 0.00 | 0.05 | 0.05 | 30 | 1019.2 |
| 20260507204146 | 60 | 346 | 4.0 | 5.0 | 0.00 | 0.05 | 0.05 | 29 | 1019.5 |
| 20260507203644 | 60 | 44 | 2.0 | 3.0 | 0.00 | 0.05 | 0.05 | 30 | 1019.6 |
| 20260507203141 | 60 | 22 | 4.0 | 7.0 | 0.00 | 0.05 | 0.05 | 30 | 1019.5 |
| 20260507202636 | 61 | 24 | 1.0 | 2.0 | 0.00 | 0.05 | 0.05 | 30 | 1019.7 |
| 20260507202133 | 61 | 7 | 1.0 | 1.0 | 0.00 | 0.05 | 0.05 | 31 | 1019.9 |
| 20260507201628 | 61 | 42 | 4.0 | 6.0 | 0.00 | 0.05 | 0.05 | 33 | 1019.9 |
| 20260507201125 | 61 | 300 | 4.0 | 5.0 | 0.00 | 0.05 | 0.05 | 31 | 1019.9 |
| 20260507200621 | 60 | 14 | 4.0 | 6.0 | 0.00 | 0.05 | 0.05 | 30 | 1019.7 |
| 20260507200117 | 60 | 50 | 3.0 | 6.0 | 0.00 | 0.05 | 0.05 | 33 | 1019.7 |
| 20260507195615 | 60 | 32 | 1.0 | 2.0 | 0.00 | 0.05 | 0.05 | 34 | 1019.9 |
| 20260507195112 | 60 | 26 | 2.0 | 3.0 | 0.00 | 0.05 | 0.05 | 31 | 1020.4 |
| 20260507194608 | 60 | 48 | 2.0 | 3.0 | 0.00 | 0.05 | 0.05 | 32 | 1020.1 |
| 20260507194103 | 60 | 21 | 2.0 | 3.0 | 0.00 | 0.05 | 0.05 | 32 | 1020.2 |
| 20260507193601 | 59 | 18 | 2.0 | 2.0 | 0.00 | 0.05 | 0.05 | 31 | 1020.1 |
| 20260507193058 | 60 | 76 | 4.0 | 6.0 | 0.00 | 0.05 | 0.05 | 32 | 1020.1 |
| 20260507192554 | 59 | 76 | 2.0 | 2.0 | 0.00 | 0.05 | 0.05 | 33 | 1020.4 |
| 20260507192051 | 58 | 47 | 1.0 | 2.0 | 0.00 | 0.05 | 0.05 | 34 | 1020.2 |
| 20260507191546 | 58 | 53 | 1.0 | 2.0 | 0.00 | 0.05 | 0.05 | 34 | 1020.4 |
| 20260507191044 | 57 | 100 | 3.0 | 3.0 | 0.00 | 0.05 | 0.05 | 33 | 1020.5 |
| 20260507190541 | 58 | 335 | 3.0 | 5.0 | 0.00 | 0.05 | 0.05 | 35 | 1020.5 |
| 20260507190040 | 58 | 41 | 1.0 | 1.0 | 0.00 | 0.05 | 0.05 | 32 | 1020.6 |
| 20260507185538 | 59 | 5 | 2.0 | 2.0 | 0.00 | 0.05 | 0.05 | 30 | 1021.0 |
| 20260507185034 | 59 | 60 | 3.0 | 3.0 | 0.00 | 0.05 | 0.05 | 30 | 1020.9 |
| 20260507184532 | 58 | 21 | 2.0 | 2.0 | 0.00 | 0.05 | 0.05 | 30 | 1021.0 |
| 20260507184030 | 58 | 49 | 1.0 | 1.0 | 0.00 | 0.05 | 0.05 | 31 | 1020.7 |
| 20260507183525 | 58 | 25 | 2.0 | 2.0 | 0.00 | 0.05 | 0.05 | 29 | 1020.7 |
| 20260507183023 | 58 | 49 | 3.0 | 3.0 | 0.00 | 0.05 | 0.05 | 30 | 1020.9 |
| 20260507182519 | 57 | 70 | 2.0 | 3.0 | 0.00 | 0.05 | 0.05 | 29 | 1020.7 |
| 20260507182015 | 56 | 19 | 0.0 | 1.0 | 0.00 | 0.05 | 0.05 | 29 | 1020.7 |
| 20260507181512 | 56 | 320 | 2.0 | 2.0 | 0.00 | 0.05 | 0.05 | 28 | 1021.0 |
| 20260507181008 | 56 | 46 | 2.0 | 2.0 | 0.00 | 0.05 | 0.05 | 28 | 1020.7 |
| 20260507180505 | 56 | 345 | 0.0 | 1.0 | 0.00 | 0.05 | 0.05 | 31 | 1020.5 |
| 20260507180001 | 56 | 308 | 0.0 | 1.0 | 0.00 | 0.05 | 0.05 | 31 | 1020.7 |
| 20260507175458 | 57 | 63 | 2.0 | 3.0 | 0.00 | 0.05 | 0.05 | 30 | 1020.6 |
| 20260507174955 | 57 | 24 | 1.0 | 1.0 | 0.00 | 0.05 | 0.05 | 33 | 1020.9 |
| 20260507174452 | 57 | 38 | 2.0 | 2.0 | 0.00 | 0.05 | 0.05 | 32 | 1020.7 |
| 20260507173950 | 57 | 11 | 1.0 | 1.0 | 0.00 | 0.05 | 0.05 | 30 | 1021.0 |
| 20260507173447 | 56 | 37 | 1.0 | 1.0 | 0.00 | 0.05 | 0.05 | 32 | 1021.2 |
| 20260507172944 | 55 | 49 | 1.0 | 2.0 | 0.00 | 0.05 | 0.05 | 30 | 1021.6 |
| 20260507172440 | 55 | 22 | 3.0 | 3.0 | 0.00 | 0.05 | 0.05 | 34 | 1021.6 |
| 20260507171937 | 53 | 139 | 3.0 | 3.0 | 0.00 | 0.05 | 0.05 | 33 | 1021.4 |
| 20260507171432 | 52 | 337 | 1.0 | 2.0 | 0.00 | 0.05 | 0.05 | 37 | 1021.5 |
| 20260507170930 | 52 | 17 | 2.0 | 2.0 | 0.00 | 0.05 | 0.05 | 39 | 1021.2 |
| 20260507170426 | 52 | 54 | 1.0 | 2.0 | 0.00 | 0.05 | 0.05 | 38 | 1021.7 |
| 20260507165923 | 51 | 13 | 3.0 | 3.0 | 0.07 | 0.05 | 0.05 | 41 | 1021.5 |
| 20260507165419 | 51 | 38 | 3.0 | 3.0 | 0.07 | 0.05 | 0.05 | 39 | 1021.6 |
| 20260507164914 | 52 | 326 | 1.0 | 1.0 | 0.00 | 0.04 | 0.04 | 35 | 1021.4 |
| 20260507164412 | 51 | 38 | 3.0 | 3.0 | 0.07 | 0.04 | 0.04 | 38 | 1021.5 |
| 20260507163909 | 51 | 50 | 3.0 | 3.0 | 0.07 | 0.04 | 0.04 | 37 | 1021.6 |
| 20260507163407 | 51 | 10 | 2.0 | 2.0 | 0.00 | 0.03 | 0.03 | 34 | 1021.7 |
| 20260507162903 | 52 | 15 | 2.0 | 2.0 | 0.05 | 0.03 | 0.03 | 37 | 1021.7 |
| 20260507162358 | 52 | 29 | 0.0 | 1.0 | 0.17 | 0.03 | 0.03 | 36 | 1021.6 |
| 20260507161856 | 51 | 2 | 3.0 | 3.0 | 0.12 | 0.02 | 0.02 | 37 | 1021.7 |
| 20260507161352 | 51 | 10 | 4.0 | 5.0 | 0.12 | 0.02 | 0.02 | 36 | 1021.7 |
| 20260507160849 | 51 | 13 | 2.0 | 3.0 | 0.00 | 0.00 | 0.00 | 35 | 1021.7 |
| 20260507160344 | 50 | 7 | 3.0 | 5.0 | 0.00 | 0.00 | 0.00 | 35 | 1021.9 |
| 20260507155841 | 50 | 26 | 0.0 | 1.0 | 0.00 | 0.00 | 0.00 | 37 | 1021.7 |
| 20260507155336 | 50 | 34 | 1.0 | 1.0 | 0.00 | 0.00 | 0.00 | 39 | 1021.7 |
| 20260507154834 | 50 | 51 | 1.0 | 2.0 | 0.00 | 0.00 | 0.00 | 42 | 1022.0 |
| 20260507154331 | 49 | 6 | 2.0 | 2.0 | 0.00 | 0.00 | 0.00 | 41 | 1022.1 |
| 20260507153828 | 49 | 19 | 1.0 | 2.0 | 0.00 | 0.00 | 0.00 | 41 | 1021.9 |
| 20260507153324 | 48 | 60 | 1.0 | 2.0 | 0.00 | 0.00 | 0.00 | 43 | 1021.9 |
| 20260507152821 | 48 | 32 | 2.0 | 2.0 | 0.00 | 0.00 | 0.00 | 43 | 1021.9 |
| 20260507152317 | 48 | 330 | 3.0 | 3.0 | 0.00 | 0.00 | 0.00 | 44 | 1021.9 |
| 20260507151813 | 47 | 21 | 2.0 | 2.0 | 0.00 | 0.00 | 0.00 | 45 | 1022.0 |
| 20260507151309 | 47 | 306 | 2.0 | 2.0 | 0.00 | 0.00 | 0.00 | 47 | 1022.0 |
| 20260507150807 | 46 | 48 | 1.0 | 1.0 | 0.00 | 0.00 | 0.00 | 51 | 1022.0 |
| 20260507150303 | 45 | 30 | 2.0 | 3.0 | 0.00 | 0.00 | 0.00 | 48 | 1022.1 |
| 20260507145759 | 45 | 16 | 2.0 | 3.0 | 0.00 | 0.00 | 0.00 | 50 | 1021.9 |
| 20260507145256 | 44 | 22 | 1.0 | 1.0 | 0.00 | 0.00 | 0.00 | 51 | 1022.0 |
| 20260507144753 | 43 | 26 | 2.0 | 3.0 | 0.00 | 0.00 | 0.00 | 51 | 1021.9 |
| 20260507144250 | 42 | 37 | 2.0 | 2.0 | 0.00 | 0.00 | 0.00 | 53 | 1022.1 |
| 20260507143747 | 42 | 32 | 2.0 | 3.0 | 0.00 | 0.00 | 0.00 | 55 | 1022.2 |
| 20260507143244 | 41 | 19 | 2.0 | 2.0 | 0.00 | 0.00 | 0.00 | 53 | 1022.0 |
| 20260507142740 | 41 | 2 | 1.0 | 2.0 | 0.00 | 0.00 | 0.00 | 54 | 1022.1 |
| 20260507142237 | 41 | 13 | 1.0 | 2.0 | 0.00 | 0.00 | 0.00 | 55 | 1021.9 |
| 20260507141733 | 41 | 19 | 1.0 | 2.0 | 0.00 | 0.00 | 0.00 | 54 | 1021.9 |
| 20260507141230 | 40 | 9 | 1.0 | 2.0 | 0.00 | 0.00 | 0.00 | 55 | 1021.9 |
| 20260507140726 | 40 | 19 | 3.0 | 3.0 | 0.00 | 0.00 | 0.00 | 55 | 1022.0 |
| 20260507140224 | 39 | 14 | 3.0 | 3.0 | 0.00 | 0.00 | 0.00 | 57 | 1022.0 |
| 20260507135721 | 39 | 353 | 3.0 | 3.0 | 0.00 | 0.00 | 0.00 | 57 | 1022.2 |
| 20260507135218 | 38 | 30 | 0.0 | 1.0 | 0.00 | 0.00 | 0.00 | 60 | 1022.0 |
| 20260507134714 | 38 | 30 | 0.0 | 1.0 | 0.00 | 0.00 | 0.00 | 57 | 1022.0 |
| 20260507134211 | 37 | 28 | 0.0 | 1.0 | 0.00 | 0.00 | 0.00 | 59 | 1021.7 |
| 20260507133707 | 37 | 46 | 1.0 | 2.0 | 0.00 | 0.00 | 0.00 | 57 | 1021.7 |
| 20260507133204 | 37 | 19 | 3.0 | 6.0 | 0.00 | 0.00 | 0.00 | 56 | 1021.9 |
| 20260507132701 | 35 | 22 | 4.0 | 6.0 | 0.00 | 0.00 | 0.00 | 62 | 1021.7 |
| 20260507132157 | 36 | 46 | 0.0 | 0.0 | 0.00 | 0.00 | 0.00 | 62 | 1021.5 |
| 20260507131654 | 35 | 132 | 2.0 | 2.0 | 0.00 | 0.00 | 0.00 | 61 | 1021.6 |
| 20260507131152 | 35 | 96 | 1.0 | 2.0 | 0.00 | 0.00 | 0.00 | 59 | 1021.6 |
| 20260507130648 | 35 | 152 | 2.0 | 2.0 | 0.00 | 0.00 | 0.00 | 61 | 1021.5 |
| 20260507130146 | 34 | 121 | 1.0 | 1.0 | 0.00 | 0.00 | 0.00 | 63 | 1021.4 |
| 20260507125645 | 34 | 169 | 2.0 | 2.0 | 0.00 | 0.00 | 0.00 | 64 | 1021.4 |
| 20260507125142 | 33 | 183 | 2.0 | 2.0 | 0.00 | 0.00 | 0.00 | 65 | 1021.5 |
| 20260507124638 | 33 | 186 | 1.0 | 1.0 | 0.00 | 0.00 | 0.00 | 65 | 1021.2 |
| 20260507124136 | 33 | 192 | 1.0 | 1.0 | 0.00 | 0.00 | 0.00 | 66 | 1021.2 |
| 20260507123634 | 33 | 177 | 1.0 | 1.0 | 0.00 | 0.00 | 0.00 | 66 | 1021.2 |
| 20260507123131 | 33 | 238 | 1.0 | 1.0 | 0.00 | 0.00 | 0.00 | 64 | 1021.2 |
| 20260507122626 | 32 | 10 | 1.0 | 2.0 | 0.00 | 0.00 | 0.00 | 63 | 1021.0 |
| 20260507122122 | 32 | 219 | 1.0 | 1.0 | 0.00 | 0.00 | 0.00 | 66 | 1021.1 |
| 20260507121618 | 32 | 169 | 1.0 | 1.0 | 0.00 | 0.00 | 0.00 | 66 | 1021.2 |
| 20260507121114 | 32 | 158 | 1.0 | 1.0 | 0.00 | 0.00 | 0.00 | 64 | 1021.0 |
| 20260507120610 | 32 | 200 | 2.0 | 2.0 | 0.00 | 0.00 | 0.00 | 65 | 1021.0 |
| 20260507120107 | 32 | 313 | 0.0 | 0.0 | 0.00 | 0.00 | 0.00 | 61 | 1021.0 |
| 20260507115603 | 32 | 147 | 1.0 | 2.0 | 0.00 | 0.00 | 0.00 | 65 | 1021.1 |
| 20260507115059 | 31 | 181 | 2.0 | 2.0 | 0.00 | 0.00 | 0.00 | 67 | 1021.2 |
| 20260507114555 | 31 | 189 | 0.0 | 1.0 | 0.00 | 0.00 | 0.00 | 67 | 1021.1 |
| 20260507114053 | 31 | 198 | 1.0 | 1.0 | 0.00 | 0.00 | 0.00 | 68 | 1021.0 |
| 20260507113549 | 31 | 38 | 1.0 | 2.0 | 0.00 | 0.00 | 0.00 | 67 | 1021.2 |
| 20260507113047 | 31 | 184 | 0.0 | 0.0 | 0.00 | 0.00 | 0.00 | 68 | 1021.2 |
| 20260507112545 | 32 | 177 | 1.0 | 1.0 | 0.00 | 0.00 | 0.00 | 65 | 1021.2 |
| 20260507112041 | 32 | 112 | 1.0 | 1.0 | 0.00 | 0.00 | 0.00 | 63 | 1021.0 |
| 20260507111538 | 32 | 121 | 1.0 | 2.0 | 0.00 | 0.00 | 0.00 | 64 | 1021.0 |
| 20260507111035 | 32 | 65 | 0.0 | 0.0 | 0.00 | 0.00 | 0.00 | 63 | 1021.0 |
| 20260507110531 | 32 | 148 | 1.0 | 1.0 | 0.00 | 0.00 | 0.00 | 65 | 1021.0 |
| 20260507110028 | 31 | 202 | 0.0 | 1.0 | 0.00 | 0.00 | 0.00 | 65 | 1020.9 |
| 20260507105525 | 31 | 168 | 2.0 | 2.0 | 0.00 | 0.00 | 0.00 | 68 | 1020.9 |
| 20260507105021 | 31 | 173 | 1.0 | 1.0 | 0.00 | 0.00 | 0.00 | 66 | 1021.1 |
| 20260507104519 | 31 | 127 | 1.0 | 1.0 | 0.00 | 0.00 | 0.00 | 64 | 1021.1 |
| 20260507104015 | 31 | 151 | 2.0 | 2.0 | 0.00 | 0.00 | 0.00 | 63 | 1021.0 |
| 20260507103511 | 31 | 148 | 1.0 | 1.0 | 0.00 | 0.00 | 0.00 | 64 | 1021.1 |
| 20260507103007 | 32 | 175 | 1.0 | 1.0 | 0.00 | 0.00 | 0.00 | 65 | 1021.0 |
| 20260507102504 | 32 | 169 | 1.0 | 2.0 | 0.00 | 0.00 | 0.00 | 62 | 1021.1 |
| 20260507102000 | 31 | 82 | 1.0 | 2.0 | 0.00 | 0.00 | 0.00 | 65 | 1021.4 |
| 20260507101456 | 30 | 148 | 1.0 | 2.0 | 0.00 | 0.00 | 0.00 | 69 | 1021.4 |
| 20260507100953 | 30 | 133 | 2.0 | 2.0 | 0.00 | 0.00 | 0.00 | 75 | 1021.6 |
| 20260507100450 | 29 | 155 | 1.0 | 1.0 | 0.00 | 0.00 | 0.00 | 76 | 1021.2 |
| 20260507095948 | 30 | 164 | 1.0 | 1.0 | 0.00 | 0.00 | 0.00 | 76 | 1021.2 |
| 20260507095445 | 29 | 164 | 0.0 | 0.0 | 0.00 | 0.00 | 0.00 | 76 | 1021.2 |
| 20260507094942 | 29 | 141 | 2.0 | 2.0 | 0.00 | 0.00 | 0.00 | 79 | 1021.1 |
| 20260507094438 | 29 | 144 | 1.0 | 1.0 | 0.00 | 0.00 | 0.00 | 78 | 1021.1 |
| 20260507093935 | 29 | 165 | 2.0 | 2.0 | 0.00 | 0.00 | 0.00 | 78 | 1021.2 |
| 20260507093433 | 29 | 148 | 1.0 | 2.0 | 0.00 | 0.00 | 0.00 | 81 | 1021.1 |
| 20260507092931 | 29 | 159 | 1.0 | 2.0 | 0.00 | 0.00 | 0.00 | 80 | 1021.1 |
| 20260507092427 | 29 | 167 | 1.0 | 1.0 | 0.00 | 0.00 | 0.00 | 79 | 1021.1 |
| 20260507091924 | 29 | 180 | 2.0 | 2.0 | 0.00 | 0.00 | 0.00 | 78 | 1021.2 |
| 20260507091420 | 29 | 171 | 2.0 | 2.0 | 0.00 | 0.00 | 0.00 | 78 | 1021.4 |
| 20260507090916 | 28 | 169 | 1.0 | 1.0 | 0.00 | 0.00 | 0.00 | 80 | 1021.4 |
| 20260507090413 | 29 | 159 | 1.0 | 1.0 | 0.00 | 0.00 | 0.00 | 80 | 1021.5 |
| 20260507085909 | 28 | 96 | 1.0 | 1.0 | 0.00 | 0.00 | 0.00 | 77 | 1021.4 |
| 20260507085406 | 28 | 156 | 1.0 | 1.0 | 0.00 | 0.00 | 0.00 | 81 | 1021.5 |
| 20260507084904 | 28 | 161 | 2.0 | 2.0 | 0.00 | 0.00 | 0.00 | 83 | 1021.4 |
| 20260507084400 | 28 | 153 | 0.0 | 1.0 | 0.00 | 0.00 | 0.00 | 82 | 1021.2 |
| 20260507083858 | 29 | 86 | 1.0 | 1.0 | 0.00 | 0.00 | 0.00 | 79 | 1021.4 |
| 20260507083353 | 29 | 150 | 1.0 | 2.0 | 0.00 | 0.00 | 0.00 | 78 | 1021.4 |
| 20260507082850 | 28 | 168 | 0.0 | 1.0 | 0.00 | 0.00 | 0.00 | 80 | 1021.4 |
| 20260507082346 | 28 | 172 | 1.0 | 1.0 | 0.00 | 0.00 | 0.00 | 81 | 1021.7 |
| 20260507081843 | 28 | 179 | 1.0 | 1.0 | 0.00 | 0.00 | 0.00 | 84 | 1021.6 |
| 20260507081339 | 27 | 157 | 1.0 | 1.0 | 0.00 | 0.00 | 0.00 | 86 | 1021.5 |
| 20260507080836 | 27 | 164 | 1.0 | 1.0 | 0.00 | 0.00 | 0.00 | 88 | 1021.7 |
| 20260507080332 | 27 | 123 | 1.0 | 1.0 | 0.00 | 0.00 | 0.00 | 91 | 1021.7 |
| 20260507075828 | 26 | 150 | 0.0 | 0.0 | 0.00 | 0.00 | 0.00 | 92 | 1021.6 |
| 20260507075324 | 26 | 166 | 1.0 | 1.0 | 0.00 | 0.00 | 0.00 | 92 | 1021.6 |
| 20260507074820 | 26 | 172 | 0.0 | 0.0 | 0.00 | 0.00 | 0.00 | 92 | 1021.7 |
| 20260507074318 | 27 | 156 | 2.0 | 2.0 | 0.00 | 0.00 | 0.00 | 93 | 1021.6 |
| 20260507073815 | 27 | 127 | 1.0 | 1.0 | 0.00 | 0.00 | 0.00 | 93 | 1021.6 |
| 20260507073312 | 27 | 156 | 0.0 | 0.0 | 0.00 | 0.00 | 0.00 | 94 | 1021.6 |
| 20260507072809 | 27 | 183 | 0.0 | 0.0 | 0.00 | 0.00 | 0.00 | 95 | 1021.7 |
| 20260507072308 | 26 | 176 | 2.0 | 2.0 | 0.00 | 0.00 | 0.00 | 96 | 1021.7 |
| 20260507071804 | 26 | 153 | 1.0 | 1.0 | 0.00 | 0.00 | 0.00 | 96 | 1022.0 |
| 20260507071300 | 26 | 167 | 0.0 | 1.0 | 0.00 | 0.00 | 0.00 | 96 | 1021.9 |
| 20260507070756 | 26 | 160 | 1.0 | 1.0 | 0.00 | 0.00 | 0.00 | 97 | 1022.0 |
| 20260507070254 | 26 | 151 | 1.0 | 1.0 | 0.00 | 0.00 | 0.00 | 97 | 1021.9 |
| 20260507065751 | 26 | 160 | 1.0 | 1.0 | 0.00 | 0.00 | 0.00 | 97 | 1022.0 |
| 20260507065247 | 26 | 147 | 1.0 | 1.0 | 0.00 | 0.00 | 0.00 | 97 | 1022.1 |
| 20260507064745 | 26 | 155 | 0.0 | 1.0 | 0.00 | 0.00 | 0.00 | 97 | 1021.7 |
| 20260507064244 | 26 | 156 | 0.0 | 0.0 | 0.00 | 0.00 | 0.00 | 97 | 1022.0 |
| 20260507063741 | 26 | 155 | 1.0 | 1.0 | 0.00 | 0.00 | 0.00 | 97 | 1022.1 |
| 20260507063237 | 26 | 111 | 1.0 | 1.0 | 0.00 | 0.00 | 0.00 | 97 | 1021.9 |
| 20260507062734 | 26 | 101 | 1.0 | 1.0 | 0.00 | 0.00 | 0.00 | 97 | 1021.7 |
| 20260507062232 | 26 | 104 | 1.0 | 1.0 | 0.00 | 0.00 | 0.00 | 97 | 1021.5 |
| 20260507061730 | 26 | 102 | 0.0 | 1.0 | 0.00 | 0.00 | 0.00 | 97 | 1021.9 |
| 20260507061227 | 26 | 139 | 1.0 | 1.0 | 0.00 | 0.00 | 0.00 | 97 | 1021.7 |
| 20260507060725 | 27 | 67 | 0.0 | 0.0 | 0.00 | 0.00 | 0.00 | 97 | 1021.9 |
| 20260507060222 | 27 | 25 | 0.0 | 0.0 | 0.00 | 0.00 | 0.00 | 97 | 1021.6 |
| 20260507055718 | 27 | 23 | 0.0 | 0.0 | 0.00 | 0.24 | 0.24 | 97 | 1021.7 |
| 20260507055213 | 27 | 22 | 0.0 | 0.0 | 0.00 | 0.24 | 0.24 | 97 | 1021.5 |
| 20260507054709 | 27 | 22 | 0.0 | 1.0 | 0.00 | 0.24 | 0.24 | 96 | 1021.6 |
| 20260507054207 | 28 | 21 | 0.0 | 0.0 | 0.00 | 0.24 | 0.24 | 97 | 1021.7 |
| 20260507053704 | 28 | 17 | 0.0 | 0.0 | 0.00 | 0.24 | 0.24 | 96 | 1021.9 |
| 20260507053202 | 28 | 17 | 0.0 | 0.0 | 0.00 | 0.24 | 0.24 | 96 | 1021.5 |
| 20260507052701 | 28 | 19 | 0.0 | 0.0 | 0.00 | 0.24 | 0.24 | 96 | 1021.7 |
| 20260507052155 | 28 | 20 | 0.0 | 0.0 | 0.00 | 0.24 | 0.24 | 96 | 1021.7 |
| 20260507051653 | 28 | 21 | 0.0 | 0.0 | 0.00 | 0.24 | 0.24 | 96 | 1021.6 |
| 20260507051149 | 28 | 14 | 0.0 | 0.0 | 0.00 | 0.24 | 0.24 | 96 | 1021.4 |
| 20260507050647 | 29 | 328 | 0.0 | 0.0 | 0.00 | 0.24 | 0.24 | 96 | 1021.6 |
| 20260507050144 | 29 | 334 | 0.0 | 0.0 | 0.00 | 0.24 | 0.24 | 96 | 1021.4 |
| 20260507045641 | 29 | 337 | 0.0 | 0.0 | 0.00 | 0.24 | 0.24 | 96 | 1021.5 |
| 20260507045137 | 29 | 13 | 1.0 | 1.0 | 0.00 | 0.24 | 0.24 | 96 | 1021.9 |
| 20260507044634 | 28 | 319 | 0.0 | 0.0 | 0.00 | 0.24 | 0.24 | 96 | 1021.6 |
| 20260507044131 | 28 | 1 | 1.0 | 2.0 | 0.00 | 0.24 | 0.24 | 96 | 1021.4 |
| 20260507043627 | 28 | 310 | 0.0 | 0.0 | 0.00 | 0.24 | 0.24 | 96 | 1021.6 |
| 20260507043124 | 28 | 341 | 0.0 | 0.0 | 0.00 | 0.24 | 0.24 | 96 | 1021.4 |
| 20260507042620 | 28 | 342 | 0.0 | 1.0 | 0.00 | 0.24 | 0.24 | 96 | 1021.4 |
| 20260507042116 | 28 | 20 | 0.0 | 0.0 | 0.00 | 0.24 | 0.24 | 95 | 1021.6 |
| 20260507041613 | 28 | 355 | 0.0 | 0.0 | 0.00 | 0.24 | 0.24 | 95 | 1021.6 |
| 20260507041110 | 28 | 357 | 0.0 | 0.0 | 0.00 | 0.24 | 0.24 | 95 | 1021.6 |
| 20260507040607 | 28 | 357 | 0.0 | 0.0 | 0.00 | 0.24 | 0.24 | 95 | 1021.9 |
| 20260507035559 | 28 | 354 | 0.0 | 0.0 | 0.00 | 0.24 | 0.24 | 95 | 1021.5 |
| 20260507035055 | 28 | 318 | 0.0 | 0.0 | 0.00 | 0.24 | 0.24 | 95 | 1021.5 |
| 20260507034552 | 28 | 356 | 0.0 | 0.0 | 0.00 | 0.24 | 0.24 | 95 | 1021.6 |
| 20260507034050 | 28 | 16 | 0.0 | 0.0 | 0.00 | 0.24 | 0.24 | 94 | 1021.7 |
| 20260507033548 | 28 | 16 | 0.0 | 1.0 | 0.00 | 0.24 | 0.24 | 94 | 1021.6 |
| 20260507033045 | 28 | 9 | 0.0 | 0.0 | 0.00 | 0.24 | 0.24 | 94 | 1021.4 |
| 20260507032542 | 29 | 19 | 0.0 | 0.0 | 0.00 | 0.24 | 0.24 | 94 | 1021.5 |
| 20260507032038 | 29 | 26 | 0.0 | 1.0 | 0.00 | 0.24 | 0.24 | 94 | 1021.2 |
| 20260507031534 | 29 | 352 | 0.0 | 0.0 | 0.00 | 0.24 | 0.24 | 94 | 1021.0 |
| 20260507031032 | 29 | 22 | 1.0 | 1.0 | 0.00 | 0.24 | 0.24 | 94 | 1021.2 |
| 20260507030528 | 29 | 346 | 0.0 | 0.0 | 0.00 | 0.24 | 0.24 | 93 | 1021.0 |
| 20260507030026 | 29 | 345 | 0.0 | 0.0 | 0.00 | 0.24 | 0.24 | 93 | 1021.2 |
| 20260507025523 | 29 | 325 | 0.0 | 0.0 | 0.00 | 0.24 | 0.24 | 93 | 1021.0 |
| 20260507025020 | 29 | 358 | 0.0 | 0.0 | 0.00 | 0.24 | 0.24 | 93 | 1021.1 |
| 20260507024518 | 30 | 352 | 0.0 | 0.0 | 0.00 | 0.24 | 0.24 | 92 | 1021.2 |
| 20260507024014 | 30 | 342 | 0.0 | 0.0 | 0.00 | 0.24 | 0.24 | 92 | 1020.9 |
| 20260507023510 | 30 | 352 | 0.0 | 0.0 | 0.00 | 0.24 | 0.24 | 92 | 1021.2 |
| 20260507023009 | 30 | 359 | 1.0 | 1.0 | 0.00 | 0.24 | 0.24 | 92 | 1020.9 |
| 20260507022505 | 30 | 348 | 0.0 | 0.0 | 0.00 | 0.24 | 0.24 | 92 | 1020.7 |
| 20260507022000 | 30 | 3 | 0.0 | 0.0 | 0.00 | 0.24 | 0.24 | 92 | 1021.2 |
| 20260507021456 | 30 | 1 | 0.0 | 0.0 | 0.00 | 0.24 | 0.24 | 92 | 1021.0 |
| 20260507020953 | 30 | 358 | 0.0 | 0.0 | 0.00 | 0.24 | 0.24 | 92 | 1020.9 |
| 20260507020450 | 30 | 14 | 0.0 | 0.0 | 0.00 | 0.24 | 0.24 | 92 | 1020.6 |
| 20260507015947 | 31 | 5 | 0.0 | 0.0 | 0.00 | 0.24 | 0.24 | 92 | 1020.9 |
| 20260507015446 | 31 | 3 | 0.0 | 0.0 | 0.00 | 0.24 | 0.24 | 92 | 1020.7 |
| 20260507014942 | 31 | 2 | 0.0 | 0.0 | 0.00 | 0.24 | 0.24 | 92 | 1021.0 |
| 20260507014439 | 31 | 349 | 0.0 | 0.0 | 0.00 | 0.24 | 0.24 | 92 | 1020.9 |
| 20260507013935 | 31 | 8 | 0.0 | 0.0 | 0.00 | 0.24 | 0.24 | 91 | 1020.7 |
| 20260507013432 | 31 | 355 | 0.0 | 0.0 | 0.00 | 0.24 | 0.24 | 91 | 1020.6 |
| 20260507012929 | 31 | 336 | 1.0 | 2.0 | 0.00 | 0.24 | 0.24 | 91 | 1020.9 |
| 20260507012426 | 31 | 286 | 1.0 | 1.0 | 0.00 | 0.24 | 0.24 | 92 | 1020.6 |
| 20260507011923 | 32 | 259 | 1.0 | 2.0 | 0.00 | 0.24 | 0.24 | 92 | 1020.6 |
| 20260507011420 | 32 | 344 | 0.0 | 1.0 | 0.00 | 0.24 | 0.24 | 92 | 1020.6 |
| 20260507010920 | 32 | 327 | 1.0 | 1.0 | 0.00 | 0.24 | 0.24 | 92 | 1020.9 |
| 20260507010415 | 32 | 354 | 0.0 | 0.0 | 0.00 | 0.24 | 0.24 | 92 | 1020.7 |
| 20260507005913 | 32 | 325 | 1.0 | 1.0 | 0.00 | 0.24 | 0.24 | 92 | 1020.7 |
| 20260507005409 | 32 | 167 | 3.0 | 3.0 | 0.00 | 0.24 | 0.24 | 92 | 1020.6 |
| 20260507004906 | 33 | 352 | 0.0 | 0.0 | 0.00 | 0.24 | 0.24 | 92 | 1020.6 |
| 20260507004403 | 33 | 3 | 1.0 | 1.0 | 0.00 | 0.24 | 0.24 | 92 | 1020.5 |
| 20260507003900 | 33 | 348 | 0.0 | 0.0 | 0.00 | 0.24 | 0.24 | 92 | 1020.2 |
| 20260507003355 | 33 | 10 | 0.0 | 0.0 | 0.00 | 0.24 | 0.24 | 92 | 1020.5 |
| 20260507002851 | 33 | 8 | 0.0 | 0.0 | 0.00 | 0.24 | 0.24 | 91 | 1020.2 |
| 20260507002347 | 32 | 339 | 1.0 | 1.0 | 0.00 | 0.24 | 0.24 | 90 | 1020.6 |
| 20260507001844 | 33 | 323 | 0.0 | 0.0 | 0.00 | 0.24 | 0.24 | 90 | 1020.5 |
| 20260507001341 | 33 | 359 | 0.0 | 1.0 | 0.00 | 0.24 | 0.24 | 90 | 1020.6 |
| 20260507000838 | 33 | 28 | 0.0 | 0.0 | 0.00 | 0.24 | 0.24 | 90 | 1020.5 |
| 20260507000335 | 33 | 10 | 1.0 | 2.0 | 0.07 | 0.24 | 0.24 | 90 | 1020.6 |
| 20260506235830 | 34 | 349 | 1.0 | 1.0 | 0.07 | 0.24 | 0.24 | 90 | 1020.5 |
| 20260506235327 | 34 | 344 | 0.0 | 1.0 | 0.00 | 0.23 | 0.23 | 89 | 1020.5 |
| 20260506234823 | 34 | 328 | 2.0 | 2.0 | 0.05 | 0.23 | 0.23 | 90 | 1020.4 |
| 20260506234321 | 33 | 345 | 0.0 | 1.0 | 0.05 | 0.23 | 0.23 | 88 | 1020.7 |
| 20260506233818 | 33 | 356 | 1.0 | 1.0 | 0.00 | 0.22 | 0.22 | 88 | 1020.2 |
| 20260506233314 | 33 | 1 | 1.0 | 2.0 | 0.07 | 0.22 | 0.22 | 88 | 1020.7 |
| 20260506232811 | 34 | 246 | 1.0 | 1.0 | 0.07 | 0.22 | 0.22 | 87 | 1020.9 |
| 20260506232306 | 33 | 340 | 1.0 | 1.0 | 0.00 | 0.21 | 0.21 | 86 | 1020.5 |
| 20260506231803 | 33 | 13 | 1.0 | 1.0 | 0.05 | 0.21 | 0.21 | 84 | 1020.6 |
| 20260506231301 | 34 | 343 | 1.0 | 2.0 | 0.05 | 0.21 | 0.21 | 84 | 1020.7 |
| 20260506230758 | 32 | 355 | 0.0 | 0.0 | 0.00 | 0.20 | 0.20 | 83 | 1020.5 |